createdAt,value
2019-01-03T00:02:07.206Z,0.77
2019-01-03T00:05:10.222Z,0.70
2019-01-03T00:07:59.892Z,0.70
2019-01-03T00:10:51.201Z,1.23
2019-01-03T00:13:48.162Z,0.70
2019-01-03T00:16:39.322Z,0.80
2019-01-03T00:19:45.538Z,0.70
2019-01-03T00:22:34.863Z,0.80
2019-01-03T00:25:24.477Z,1.10
2019-01-03T00:28:21.121Z,0.90
2019-01-03T00:31:21.273Z,0.90
2019-01-03T00:34:10.868Z,1.03
2019-01-03T00:37:04.818Z,1.20
2019-01-03T00:39:47.484Z,1.03
2019-01-03T00:42:38.435Z,1.00
2019-01-03T00:45:41.538Z,0.93
2019-01-03T00:48:44.728Z,1.10
2019-01-03T00:51:37.086Z,1.33
2019-01-03T00:54:28.090Z,1.43
2019-01-03T00:57:23.507Z,0.93
2019-01-03T01:00:21.562Z,1.10
2019-01-03T01:03:24.413Z,0.70
2019-01-03T01:06:14.062Z,1.10
2019-01-03T01:09:14.112Z,0.90
2019-01-03T01:12:20.502Z,0.80
2019-01-03T01:15:23.692Z,0.80
2019-01-03T01:18:14.651Z,0.70
2019-01-03T01:21:05.746Z,1.00
2019-01-03T01:23:57.313Z,1.30
2019-01-03T01:27:06.490Z,0.93
2019-01-03T01:30:12.154Z,0.67
2019-01-03T01:33:11.819Z,1.03
2019-01-03T01:36:01.221Z,1.00
2019-01-03T01:38:52.183Z,0.70
2019-01-03T01:41:39.343Z,0.80
2019-01-03T01:44:29.011Z,1.10
2019-01-03T01:47:25.177Z,0.93
2019-01-03T01:50:21.482Z,0.77
2019-01-03T01:53:21.367Z,0.80
2019-01-03T01:56:15.431Z,0.70
2019-01-03T01:59:06.435Z,0.77
2019-01-03T02:01:57.541Z,0.90
2019-01-03T02:04:47.185Z,0.83
2019-01-03T02:07:38.139Z,0.70
2019-01-03T02:10:38.575Z,0.80
2019-01-03T02:13:44.730Z,0.60
2019-01-03T02:16:34.378Z,0.70
2019-01-03T02:19:28.407Z,0.63
2019-01-03T02:22:25.225Z,0.60
2019-01-03T02:25:14.573Z,0.83
2019-01-03T02:28:04.159Z,0.87
2019-01-03T02:31:07.365Z,0.60
2019-01-03T02:34:10.477Z,0.70
2019-01-03T02:37:16.558Z,0.80
2019-01-03T02:40:16.697Z,0.50
2019-01-03T02:43:10.645Z,0.97
2019-01-03T02:46:01.695Z,0.73
2019-01-03T02:49:01.891Z,0.50
2019-01-03T02:51:56.035Z,0.60
2019-01-03T02:54:47.024Z,0.93
2019-01-03T02:57:43.833Z,0.77
2019-01-03T03:00:33.829Z,0.67
2019-01-03T03:03:26.828Z,0.70
2019-01-03T03:06:26.950Z,0.73
2019-01-03T03:09:15.924Z,0.60
2019-01-03T03:12:05.513Z,0.67
2019-01-03T03:14:49.731Z,0.60
2019-01-03T03:17:49.554Z,0.80
2019-01-03T03:20:49.834Z,0.80
2019-01-03T03:23:49.678Z,0.60
2019-01-03T03:26:35.567Z,0.70
2019-01-03T03:29:25.172Z,0.50
2019-01-03T03:32:14.781Z,0.63
2019-01-03T03:35:08.913Z,0.80
2019-01-03T03:37:58.327Z,0.60
2019-01-03T03:41:07.660Z,1.03
2019-01-03T03:44:10.471Z,0.50
2019-01-03T03:46:59.544Z,0.70
2019-01-03T03:49:53.531Z,1.00
2019-01-03T03:52:43.049Z,0.73
2019-01-03T03:55:52.281Z,0.50
2019-01-03T03:58:41.673Z,0.60
2019-01-03T04:01:37.942Z,0.50
2019-01-03T04:04:27.551Z,0.80
2019-01-03T04:07:18.651Z,0.70
2019-01-03T04:10:12.717Z,0.60
2019-01-03T04:13:03.710Z,0.63
2019-01-03T04:16:03.821Z,0.70
2019-01-03T04:18:53.417Z,0.40
2019-01-03T04:21:43.057Z,0.80
2019-01-03T04:24:34.075Z,0.67
2019-01-03T04:27:23.688Z,0.70
2019-01-03T04:30:23.938Z,0.90
2019-01-03T04:33:15.052Z,0.77
2019-01-03T04:36:04.631Z,0.90
2019-01-03T04:39:10.777Z,0.60
2019-01-03T04:41:59.999Z,0.67
2019-01-03T04:45:06.308Z,0.90
2019-01-03T04:47:53.707Z,0.87
2019-01-03T04:50:43.415Z,0.80
2019-01-03T04:53:37.426Z,1.00
2019-01-03T04:56:43.605Z,0.50
2019-01-03T04:59:34.615Z,0.87
2019-01-03T05:02:24.768Z,0.70
2019-01-03T05:05:21.901Z,0.53
2019-01-03T05:08:30.992Z,0.70
2019-01-03T05:11:22.082Z,0.93
2019-01-03T05:14:13.142Z,0.70
2019-01-03T05:17:15.995Z,0.70
2019-01-03T05:20:05.579Z,0.70
2019-01-03T05:23:05.628Z,0.90
2019-01-03T05:25:56.633Z,0.53
2019-01-03T05:28:46.239Z,0.90
2019-01-03T05:31:33.920Z,0.80
2019-01-03T05:34:25.074Z,0.83
2019-01-03T05:37:16.100Z,0.73
2019-01-03T05:40:00.357Z,0.70
2019-01-03T05:43:03.301Z,0.50
2019-01-03T05:46:00.356Z,0.40
2019-01-03T05:49:03.518Z,0.60
2019-01-03T05:52:06.561Z,0.80
2019-01-03T05:55:03.647Z,1.00
2019-01-03T05:58:09.506Z,0.77
2019-01-03T06:00:55.680Z,0.70
2019-01-03T06:04:05.011Z,0.77
2019-01-03T06:07:02.024Z,0.70
2019-01-03T06:09:53.029Z,0.70
2019-01-03T06:12:56.081Z,1.27
2019-01-03T06:16:05.490Z,1.47
2019-01-03T06:18:59.429Z,1.83
2019-01-03T06:21:47.993Z,1.80
2019-01-03T06:24:37.694Z,2.00
2019-01-03T06:27:34.897Z,1.67
2019-01-03T06:30:25.218Z,1.50
2019-01-03T06:33:24.916Z,0.87
2019-01-03T06:36:24.803Z,1.07
2019-01-03T06:39:21.523Z,1.13
2019-01-03T06:42:11.575Z,0.60
2019-01-03T06:45:20.427Z,0.83
2019-01-03T06:48:29.634Z,1.40
2019-01-03T06:51:29.599Z,2.90
2019-01-03T06:54:20.549Z,1.77
2019-01-03T06:57:26.570Z,1.60
2019-01-03T07:00:17.680Z,1.20
2019-01-03T07:03:08.686Z,1.33
2019-01-03T07:05:59.650Z,1.40
2019-01-03T07:08:53.534Z,1.50
2019-01-03T07:11:44.499Z,2.83
2019-01-03T07:14:33.990Z,2.53
2019-01-03T07:17:33.117Z,2.10
2019-01-03T07:20:24.585Z,12.07
2019-01-03T07:23:14.305Z,5.57
2019-01-03T07:26:03.746Z,6.93
2019-01-03T07:29:04.776Z,13.27
2019-01-03T07:32:10.885Z,6.17
2019-01-03T07:35:13.478Z,3.03
2019-01-03T07:38:22.666Z,3.40
2019-01-03T07:41:12.040Z,1.90
2019-01-03T07:44:01.805Z,2.70
2019-01-03T07:47:11.074Z,1.83
2019-01-03T07:49:55.347Z,2.07
2019-01-03T07:52:46.307Z,2.60
2019-01-03T07:55:35.625Z,2.70
2019-01-03T07:58:25.217Z,2.07
2019-01-03T08:01:16.319Z,1.83
2019-01-03T08:04:10.081Z,2.00
2019-01-03T08:06:59.657Z,2.87
2019-01-03T08:09:49.319Z,2.10
2019-01-03T08:12:38.862Z,2.70
2019-01-03T08:15:42.339Z,2.63
2019-01-03T08:18:42.372Z,2.80
2019-01-03T08:21:36.610Z,2.40
2019-01-03T08:24:26.113Z,4.13
2019-01-03T08:27:20.212Z,2.20
2019-01-03T08:30:22.931Z,2.37
2019-01-03T08:33:03.215Z,2.50
2019-01-03T08:35:54.158Z,4.53
2019-01-03T08:38:53.975Z,4.17
2019-01-03T08:41:45.074Z,4.37
2019-01-03T08:44:38.768Z,2.87
2019-01-03T08:47:35.998Z,2.67
2019-01-03T08:50:30.521Z,2.30
2019-01-03T08:53:37.186Z,1.53
2019-01-03T08:56:26.655Z,1.50
2019-01-03T08:59:20.733Z,2.03
2019-01-03T09:02:21.028Z,2.00
2019-01-03T09:05:18.089Z,1.73
2019-01-03T09:08:24.395Z,1.70
2019-01-03T09:11:27.240Z,1.77
2019-01-03T09:14:24.377Z,2.70
2019-01-03T09:17:21.514Z,1.90
2019-01-03T09:20:11.207Z,2.30
2019-01-03T09:23:14.440Z,2.90
2019-01-03T09:26:17.583Z,2.97
2019-01-03T09:29:08.789Z,1.93
2019-01-03T09:31:59.842Z,6.20
2019-01-03T09:35:05.866Z,5.33
2019-01-03T09:38:05.931Z,7.83
2019-01-03T09:41:03.560Z,4.00
2019-01-03T09:43:53.269Z,4.07
2019-01-03T09:46:25.453Z,2.13
2019-01-03T09:48:57.663Z,1.97
2019-01-03T09:51:29.883Z,2.33
2019-01-03T09:54:02.194Z,3.60
2019-01-03T09:56:34.447Z,5.43
2019-01-03T09:59:06.760Z,3.90
2019-01-03T10:01:39.123Z,5.53
2019-01-03T10:04:11.556Z,5.80
2019-01-03T10:06:43.862Z,3.50
2019-01-03T10:09:16.085Z,4.17
2019-01-03T10:11:48.502Z,3.10
2019-01-03T10:14:20.920Z,2.60
2019-01-03T10:16:53.126Z,2.50
2019-01-03T10:19:25.337Z,2.10
2019-01-03T10:21:57.562Z,2.87
2019-01-03T10:24:29.888Z,2.23
2019-01-03T10:27:02.402Z,1.80
2019-01-03T10:29:34.609Z,1.70
2019-01-03T10:32:07.127Z,2.80
2019-01-03T10:34:39.352Z,1.53
2019-01-03T10:37:11.559Z,1.60
2019-01-03T10:39:43.881Z,1.60
2019-01-03T10:42:17.473Z,1.63
2019-01-03T10:44:49.779Z,2.30
2019-01-03T10:47:22.107Z,1.70
2019-01-03T10:49:54.321Z,2.97
2019-01-03T10:52:26.522Z,3.22
2019-01-03T10:54:58.739Z,3.43
2019-01-03T10:57:30.997Z,6.23
2019-01-03T11:00:03.313Z,3.33
2019-01-03T11:02:35.648Z,10.03
2019-01-03T11:05:08.217Z,5.03
2019-01-03T11:07:40.435Z,7.13
2019-01-03T11:10:12.847Z,2.90
2019-01-03T11:12:45.166Z,2.00
2019-01-03T11:15:17.377Z,2.58
2019-01-03T11:17:49.594Z,2.70
2019-01-03T11:20:21.910Z,4.13
2019-01-03T11:22:54.077Z,5.07
2019-01-03T11:25:26.292Z,2.75
2019-01-03T11:27:58.460Z,2.40
2019-01-03T11:30:30.779Z,2.03
2019-01-03T11:33:02.990Z,1.43
2019-01-03T11:35:35.209Z,2.40
2019-01-03T11:38:07.536Z,1.67
2019-01-03T11:40:39.854Z,1.70
2019-01-03T11:43:12.062Z,1.37
2019-01-03T11:45:44.380Z,1.40
2019-01-03T11:48:16.580Z,1.37
2019-01-03T11:50:48.806Z,1.47
2019-01-03T11:53:21.012Z,1.10
2019-01-03T11:55:53.370Z,1.30
2019-01-03T11:58:25.670Z,1.27
2019-01-03T12:00:58.159Z,1.20
2019-01-03T12:03:30.364Z,1.40
2019-01-03T12:06:02.777Z,1.20
2019-01-03T12:08:34.988Z,0.93
2019-01-03T12:11:07.395Z,1.23
2019-01-03T12:13:39.600Z,0.97
2019-01-03T12:16:11.814Z,0.90
2019-01-03T12:18:44.033Z,0.80
2019-01-03T12:21:16.359Z,0.83
2019-01-03T12:23:48.585Z,1.10
2019-01-03T12:26:20.910Z,1.00
2019-01-03T12:28:53.126Z,1.30
2019-01-03T12:31:25.569Z,2.00
2019-01-03T12:33:58.044Z,3.30
2019-01-03T12:36:30.527Z,1.40
2019-01-03T12:39:02.890Z,1.40
2019-01-03T12:41:35.279Z,1.07
2019-01-03T12:44:07.650Z,1.70
2019-01-03T12:46:40.017Z,1.53
2019-01-03T12:49:12.393Z,1.10
2019-01-03T12:51:44.859Z,1.00
2019-01-03T12:54:17.228Z,1.43
2019-01-03T12:56:49.748Z,1.27
2019-01-03T12:59:22.122Z,1.50
2019-01-03T13:01:54.494Z,1.07
2019-01-03T13:04:26.966Z,1.00
2019-01-03T13:06:59.447Z,1.70
2019-01-03T13:09:31.925Z,5.30
2019-01-03T13:12:04.405Z,2.90
2019-01-03T13:14:36.783Z,1.77
2019-01-03T13:17:09.357Z,1.13
2019-01-03T13:19:41.725Z,1.20
2019-01-03T13:22:14.108Z,1.10
2019-01-03T13:24:46.473Z,1.37
2019-01-03T13:27:18.718Z,1.77
2019-01-03T13:29:51.024Z,1.70
2019-01-03T13:32:23.233Z,1.43
2019-01-03T13:34:55.444Z,1.70
2019-01-03T13:37:27.646Z,1.67
2019-01-03T13:39:59.948Z,2.13
2019-01-03T13:42:32.174Z,1.33
2019-01-03T13:45:04.593Z,2.20
2019-01-03T13:47:36.912Z,1.70
2019-01-03T13:50:09.999Z,1.80
2019-01-03T13:52:42.209Z,1.13
2019-01-03T13:55:14.666Z,1.63
2019-01-03T13:57:46.868Z,1.40
2019-01-03T14:00:19.272Z,1.57
2019-01-03T14:02:51.491Z,2.57
2019-01-03T14:05:23.686Z,1.60
2019-01-03T14:07:55.971Z,2.13
2019-01-03T14:10:28.174Z,1.90
2019-01-03T14:13:00.478Z,2.40
2019-01-03T14:15:32.676Z,1.77
2019-01-03T14:18:04.964Z,1.83
2019-01-03T14:20:37.175Z,2.00
2019-01-03T14:23:09.384Z,2.13
2019-01-03T14:25:41.691Z,2.30
2019-01-03T14:28:14.106Z,2.30
2019-01-03T14:30:46.313Z,2.23
2019-01-03T14:33:18.524Z,3.00
2019-01-03T14:35:50.834Z,2.63
2019-01-03T14:38:23.152Z,2.00
2019-01-03T14:40:55.356Z,2.37
2019-01-03T14:43:27.577Z,2.33
2019-01-03T14:45:59.787Z,2.40
2019-01-03T14:48:32.006Z,2.80
2019-01-03T14:51:04.212Z,2.63
2019-01-03T14:53:36.730Z,3.03
2019-01-03T14:56:09.185Z,3.27
2019-01-03T14:58:41.398Z,2.60
2019-01-03T15:01:13.613Z,2.37
2019-01-03T15:03:45.837Z,2.60
2019-01-03T15:06:18.047Z,2.57
2019-01-03T15:08:50.256Z,2.70
2019-01-03T15:11:22.456Z,2.83
2019-01-03T15:13:54.771Z,1.93
2019-01-03T15:16:27.071Z,1.93
2019-01-03T15:18:59.286Z,2.77
2019-01-03T15:21:31.491Z,2.50
2019-01-03T15:24:03.706Z,2.40
2019-01-03T15:26:36.013Z,3.07
2019-01-03T15:29:08.226Z,2.83
2019-01-03T15:31:40.442Z,3.47
2019-01-03T15:34:12.659Z,3.00
2019-01-03T15:36:45.169Z,2.97
2019-01-03T15:39:17.379Z,2.90
2019-01-03T15:41:49.588Z,2.80
2019-01-03T15:44:21.895Z,3.03
2019-01-03T15:46:54.205Z,2.60
2019-01-03T15:49:26.429Z,2.87
2019-01-03T15:51:58.640Z,2.90
2019-01-03T15:54:30.855Z,3.00
2019-01-03T15:57:03.210Z,2.83
2019-01-03T15:59:35.415Z,2.70
2019-01-03T16:02:07.922Z,2.80
2019-01-03T16:04:40.133Z,3.27
2019-01-03T16:07:12.441Z,3.23
2019-01-03T16:09:44.654Z,3.30
2019-01-03T16:12:16.970Z,3.63
2019-01-03T16:14:49.186Z,2.83
2019-01-03T16:17:21.398Z,3.27
2019-01-03T16:19:53.708Z,2.90
2019-01-03T16:22:25.920Z,3.63
2019-01-03T16:24:58.134Z,3.80
2019-01-03T16:27:30.339Z,3.00
2019-01-03T16:30:02.960Z,3.97
2019-01-03T16:32:35.169Z,2.97
2019-01-03T16:35:07.690Z,3.83
2019-01-03T16:37:40.099Z,3.63
2019-01-03T16:40:12.697Z,7.47
2019-01-03T16:42:46.246Z,6.43
2019-01-03T16:45:18.654Z,6.67
2019-01-03T16:47:50.876Z,7.33
2019-01-03T16:50:23.205Z,5.30
2019-01-03T16:52:55.520Z,5.13
2019-01-03T16:55:28.039Z,6.43
2019-01-03T16:58:00.244Z,4.77
2019-01-03T17:00:32.670Z,4.90
2019-01-03T17:03:05.066Z,5.20
2019-01-03T17:05:37.279Z,4.57
2019-01-03T17:08:09.585Z,5.70
2019-01-03T17:10:41.793Z,4.10
2019-01-03T17:13:14.088Z,3.57
2019-01-03T17:15:46.410Z,4.70
2019-01-03T17:18:18.715Z,3.97
2019-01-03T17:20:51.027Z,4.43
2019-01-03T17:23:24.248Z,4.00
2019-01-03T17:25:56.728Z,4.60
2019-01-03T17:28:29.040Z,5.50
2019-01-03T17:31:01.446Z,5.63
2019-01-03T17:33:33.769Z,4.40
2019-01-03T17:36:06.180Z,4.60
2019-01-03T17:38:38.389Z,5.40
2019-01-03T17:41:10.703Z,4.60
2019-01-03T17:43:43.031Z,5.20
2019-01-03T17:46:15.445Z,5.07
2019-01-03T17:48:47.799Z,4.77
2019-01-03T17:51:20.019Z,5.40
2019-01-03T17:53:52.226Z,5.30
2019-01-03T17:56:24.592Z,6.30
2019-01-03T17:58:56.809Z,4.50
2019-01-03T18:01:29.167Z,4.80
2019-01-03T18:04:01.439Z,5.27
2019-01-03T18:06:33.864Z,4.53
2019-01-03T18:09:06.873Z,5.17
2019-01-03T18:11:39.094Z,5.80
2019-01-03T18:14:11.515Z,5.17
2019-01-03T18:16:43.726Z,4.13
2019-01-03T18:19:16.028Z,5.93
2019-01-03T18:21:48.349Z,4.63
2019-01-03T18:24:20.660Z,5.03
2019-01-03T18:26:53.055Z,5.30
2019-01-03T18:29:25.367Z,4.40
2019-01-03T18:31:57.583Z,3.80
2019-01-03T18:34:29.786Z,4.60
2019-01-03T18:37:02.115Z,4.07
2019-01-03T18:39:34.335Z,3.53
2019-01-03T18:42:06.656Z,5.10
2019-01-03T18:44:38.899Z,4.20
2019-01-03T18:47:11.117Z,4.40
2019-01-03T18:49:43.323Z,5.73
2019-01-03T18:52:15.895Z,3.90
2019-01-03T18:54:48.098Z,4.30
2019-01-03T18:57:21.314Z,3.53
2019-01-03T18:59:53.727Z,3.80
2019-01-03T19:02:26.036Z,4.43
2019-01-03T19:04:58.448Z,5.13
2019-01-03T19:07:30.654Z,4.10
2019-01-03T19:10:03.024Z,3.80
2019-01-03T19:12:35.241Z,4.67
2019-01-03T19:15:08.699Z,3.93
2019-01-03T19:17:41.014Z,3.83
2019-01-03T19:20:13.818Z,6.10
2019-01-03T19:22:46.016Z,5.33
2019-01-03T19:25:21.438Z,5.77
2019-01-03T19:27:53.733Z,5.10
2019-01-03T19:30:25.997Z,6.93
2019-01-03T19:32:58.209Z,5.20
2019-01-03T19:35:30.373Z,5.50
2019-01-03T19:38:02.587Z,5.33
2019-01-03T19:40:35.053Z,5.30
2019-01-03T19:43:07.464Z,5.57
2019-01-03T19:45:39.627Z,5.70
2019-01-03T19:48:11.828Z,4.47
2019-01-03T19:50:43.993Z,5.50
2019-01-03T19:53:16.217Z,5.93
2019-01-03T19:55:48.432Z,5.60
2019-01-03T19:58:20.749Z,5.60
2019-01-03T20:00:52.994Z,5.60
2019-01-03T20:03:25.216Z,6.23
2019-01-03T20:05:57.486Z,6.93
2019-01-03T20:08:29.896Z,6.13
2019-01-03T20:11:02.664Z,9.50
2019-01-03T20:13:34.875Z,6.93
2019-01-03T20:16:07.340Z,6.87
2019-01-03T20:18:39.655Z,7.00
2019-01-03T20:21:11.828Z,5.97
2019-01-03T20:23:44.233Z,6.60
2019-01-03T20:26:16.413Z,4.97
2019-01-03T20:28:48.805Z,5.77
2019-01-03T20:31:21.082Z,4.67
2019-01-03T20:33:53.399Z,6.40
2019-01-03T20:36:25.582Z,7.40
2019-01-03T20:38:57.898Z,7.10
2019-01-03T20:41:30.165Z,7.80
2019-01-03T20:44:02.478Z,6.83
2019-01-03T20:46:34.651Z,5.50
2019-01-03T20:49:06.965Z,5.90
2019-01-03T20:51:39.130Z,5.50
2019-01-03T20:54:11.543Z,6.23
2019-01-03T20:56:43.854Z,6.03
2019-01-03T20:59:16.072Z,6.50
2019-01-03T21:01:48.344Z,6.03
2019-01-03T21:04:20.571Z,4.63
2019-01-03T21:06:52.800Z,5.50
2019-01-03T21:09:25.108Z,6.30
2019-01-03T21:11:57.278Z,6.67
2019-01-03T21:14:29.483Z,5.73
2019-01-03T21:17:01.653Z,5.93
2019-01-03T21:19:34.111Z,6.80
2019-01-03T21:22:07.642Z,4.50
2019-01-03T21:24:39.999Z,5.13
2019-01-03T21:27:12.261Z,4.33
2019-01-03T21:29:44.575Z,4.90
2019-01-03T21:32:17.040Z,4.83
2019-01-03T21:34:49.340Z,5.03
2019-01-03T21:37:21.508Z,4.33
2019-01-03T21:39:53.925Z,4.80
2019-01-03T21:42:26.287Z,4.03
2019-01-03T21:44:58.700Z,4.93
2019-01-03T21:47:30.968Z,4.80
2019-01-03T21:50:03.383Z,4.57
2019-01-03T21:52:35.759Z,4.13
2019-01-03T21:55:08.329Z,4.00
2019-01-03T21:57:40.489Z,4.20
2019-01-03T22:00:14.755Z,4.27
2019-01-03T22:02:47.022Z,4.50
2019-01-03T22:05:19.394Z,4.57
2019-01-03T22:07:51.551Z,4.67
2019-01-03T22:10:23.848Z,4.70
2019-01-03T22:12:56.115Z,4.80
2019-01-03T22:15:28.431Z,4.40
2019-01-03T22:18:00.602Z,4.40
2019-01-03T22:20:32.927Z,4.30
2019-01-03T22:23:05.197Z,4.17
2019-01-03T22:25:37.398Z,4.27
2019-01-03T22:28:09.659Z,4.17
2019-01-03T22:30:42.348Z,3.60
2019-01-03T22:33:14.504Z,4.50
2019-01-03T22:35:46.712Z,4.37
2019-01-03T22:38:18.879Z,5.50
2019-01-03T22:40:51.190Z,4.30
2019-01-03T22:43:23.459Z,3.47
2019-01-03T22:45:55.773Z,4.53
2019-01-03T22:48:27.936Z,4.33
2019-01-03T22:51:00.347Z,3.73
2019-01-03T22:53:32.652Z,4.07
2019-01-03T22:56:05.019Z,4.67
2019-01-03T22:58:37.182Z,4.67
2019-01-03T23:01:10.268Z,4.93
2019-01-03T23:03:42.545Z,4.70
2019-01-03T23:06:14.854Z,4.07
2019-01-03T23:08:47.071Z,4.23
2019-01-03T23:11:19.485Z,3.53
2019-01-03T23:13:51.703Z,3.13
2019-01-03T23:16:24.015Z,3.90
2019-01-03T23:18:56.386Z,4.43
2019-01-03T23:21:28.601Z,4.60
2019-01-03T23:24:00.909Z,3.50
2019-01-03T23:26:33.344Z,3.53
2019-01-03T23:29:05.552Z,4.07
2019-01-03T23:31:37.756Z,5.17
2019-01-03T23:34:10.077Z,5.03
2019-01-03T23:36:42.274Z,5.63
2019-01-03T23:39:14.497Z,7.37
2019-01-03T23:41:46.813Z,5.83
2019-01-03T23:44:19.034Z,8.20
2019-01-03T23:46:51.665Z,6.63
2019-01-03T23:49:23.937Z,6.07
2019-01-03T23:51:56.246Z,6.20
2019-01-03T23:54:28.552Z,5.00
2019-01-03T23:57:00.969Z,4.70
2019-01-03T23:59:33.230Z,4.93
